createdAt,value
2023-05-19T00:02:26.191Z,6.07
2023-05-19T00:04:53.921Z,6.17
2023-05-19T00:07:25.456Z,6.70
2023-05-19T00:09:53.042Z,6.90
2023-05-19T00:12:20.520Z,6.23
2023-05-19T00:14:48.069Z,6.27
2023-05-19T00:17:17.106Z,6.10
2023-05-19T00:19:45.242Z,5.93
2023-05-19T00:22:12.736Z,5.87
2023-05-19T00:24:40.141Z,6.00
2023-05-19T00:27:07.486Z,6.97
2023-05-19T00:29:34.922Z,6.20
2023-05-19T00:32:02.343Z,6.07
2023-05-19T00:34:29.748Z,6.10
2023-05-19T00:36:57.168Z,6.53
2023-05-19T00:39:24.551Z,6.30
2023-05-19T00:41:51.990Z,6.43
2023-05-19T00:44:19.364Z,5.97
2023-05-19T00:46:46.869Z,6.10
2023-05-19T00:49:14.449Z,6.13
2023-05-19T00:51:42.064Z,6.20
2023-05-19T00:54:09.738Z,6.00
2023-05-19T00:56:37.130Z,6.83
2023-05-19T00:59:04.574Z,5.80
2023-05-19T01:01:32.534Z,5.67
2023-05-19T01:04:00.171Z,6.57
2023-05-19T01:06:27.968Z,6.30
2023-05-19T01:08:57.583Z,6.47
2023-05-19T01:11:24.956Z,6.93
2023-05-19T01:13:52.608Z,6.73
2023-05-19T01:16:20.161Z,5.93
2023-05-19T01:18:47.738Z,6.30
2023-05-19T01:21:36.363Z,6.13
2023-05-19T01:24:23.077Z,6.40
2023-05-19T01:27:09.485Z,6.17
2023-05-19T01:30:00.047Z,6.20
2023-05-19T01:32:28.165Z,6.03
2023-05-19T01:34:56.546Z,6.47
2023-05-19T01:37:24.670Z,5.97
2023-05-19T01:39:52.453Z,5.80
2023-05-19T01:42:20.586Z,6.27
2023-05-19T01:44:48.446Z,5.53
2023-05-19T01:47:16.288Z,5.60
2023-05-19T01:49:43.735Z,5.83
2023-05-19T01:52:11.308Z,5.40
2023-05-19T01:54:38.737Z,5.87
2023-05-19T01:57:38.676Z,5.93
2023-05-19T02:00:15.812Z,6.20
2023-05-19T02:02:48.060Z,5.30
2023-05-19T02:05:21.127Z,5.70
2023-05-19T02:08:03.141Z,5.97
2023-05-19T02:10:31.388Z,6.03
2023-05-19T02:13:01.826Z,6.07
2023-05-19T02:15:31.532Z,6.17
2023-05-19T02:18:00.452Z,5.80
2023-05-19T02:20:27.947Z,6.17
2023-05-19T02:22:55.327Z,5.73
2023-05-19T02:25:24.369Z,5.73
2023-05-19T02:27:52.046Z,5.47
2023-05-19T02:30:19.406Z,5.23
2023-05-19T02:32:46.981Z,4.90
2023-05-19T02:35:14.706Z,4.47
2023-05-19T02:37:42.246Z,4.50
2023-05-19T02:40:09.959Z,4.63
2023-05-19T02:42:37.400Z,4.60
2023-05-19T02:45:05.048Z,5.47
2023-05-19T02:47:33.629Z,5.17
2023-05-19T02:50:03.754Z,4.57
2023-05-19T02:52:31.223Z,4.47
2023-05-19T02:54:58.844Z,4.00
2023-05-19T02:57:27.049Z,4.80
2023-05-19T02:59:54.542Z,4.50
2023-05-19T03:02:22.095Z,4.17
2023-05-19T03:04:49.489Z,4.20
2023-05-19T03:07:17.140Z,4.33
2023-05-19T03:09:44.522Z,4.17
2023-05-19T03:12:12.052Z,4.07
2023-05-19T03:14:39.573Z,3.10
2023-05-19T03:17:10.379Z,2.60
2023-05-19T03:19:37.934Z,2.40
2023-05-19T03:22:05.539Z,3.00
2023-05-19T03:24:32.851Z,3.20
2023-05-19T03:27:00.222Z,3.07
2023-05-19T03:29:27.605Z,3.30
2023-05-19T03:31:55.054Z,3.00
2023-05-19T03:34:22.697Z,2.83
2023-05-19T03:36:50.499Z,3.07
2023-05-19T03:39:18.005Z,3.23
2023-05-19T03:41:45.645Z,2.60
2023-05-19T03:44:13.012Z,2.57
2023-05-19T03:46:40.408Z,2.70
2023-05-19T03:49:08.015Z,2.70
2023-05-19T03:51:36.844Z,3.00
2023-05-19T03:54:04.776Z,3.30
2023-05-19T03:56:33.004Z,3.03
2023-05-19T03:59:00.694Z,3.23
2023-05-19T04:01:28.210Z,2.60
2023-05-19T04:03:55.612Z,3.03
2023-05-19T04:06:23.695Z,2.70
2023-05-19T04:08:51.188Z,2.07
2023-05-19T04:11:20.197Z,2.40
2023-05-19T04:13:47.615Z,2.40
2023-05-19T04:16:15.193Z,2.40
2023-05-19T04:18:42.752Z,2.43
2023-05-19T04:21:10.183Z,2.40
2023-05-19T04:23:37.606Z,2.10
2023-05-19T04:26:07.023Z,2.00
2023-05-19T04:28:36.979Z,2.20
2023-05-19T04:31:04.592Z,2.10
2023-05-19T04:33:34.139Z,2.20
2023-05-19T04:36:08.688Z,2.30
2023-05-19T04:38:36.981Z,2.27
2023-05-19T04:41:04.727Z,2.00
2023-05-19T04:43:32.124Z,2.03
2023-05-19T04:45:59.589Z,2.03
2023-05-19T04:48:27.532Z,2.37
2023-05-19T04:50:54.914Z,2.10
2023-05-19T04:53:22.366Z,2.07
2023-05-19T04:55:50.453Z,2.10
2023-05-19T04:58:18.547Z,2.23
2023-05-19T05:00:45.973Z,2.00
2023-05-19T05:03:14.744Z,2.13
2023-05-19T05:05:42.285Z,2.10
2023-05-19T05:08:11.203Z,2.37
2023-05-19T05:10:38.678Z,1.93
2023-05-19T05:13:06.287Z,1.97
2023-05-19T05:15:33.802Z,1.77
2023-05-19T05:18:01.479Z,1.60
2023-05-19T05:20:29.245Z,1.70
2023-05-19T05:22:57.850Z,1.57
2023-05-19T05:25:25.484Z,1.47
2023-05-19T05:27:52.839Z,1.40
2023-05-19T05:30:20.335Z,1.50
2023-05-19T05:32:48.083Z,1.40
2023-05-19T05:35:16.277Z,1.30
2023-05-19T05:37:43.649Z,1.40
2023-05-19T05:40:11.411Z,1.20
2023-05-19T05:42:38.838Z,1.63
2023-05-19T05:45:06.566Z,1.50
2023-05-19T05:47:34.207Z,1.50
2023-05-19T05:50:01.899Z,1.30
2023-05-19T05:52:31.098Z,1.40
2023-05-19T05:54:58.723Z,1.40
2023-05-19T05:57:27.125Z,1.40
2023-05-19T05:59:54.521Z,1.27
2023-05-19T06:02:22.377Z,1.50
2023-05-19T06:04:49.810Z,1.27
2023-05-19T06:07:17.263Z,1.43
2023-05-19T06:09:44.695Z,1.40
2023-05-19T06:12:12.180Z,1.10
2023-05-19T06:14:39.568Z,1.70
2023-05-19T06:17:07.008Z,1.30
2023-05-19T06:19:34.394Z,1.63
2023-05-19T06:22:01.767Z,1.30
2023-05-19T06:24:29.123Z,1.27
2023-05-19T06:26:56.485Z,1.17
2023-05-19T06:29:23.908Z,0.90
2023-05-19T06:31:51.730Z,1.20
2023-05-19T06:34:19.374Z,1.00
2023-05-19T06:36:46.946Z,1.10
2023-05-19T06:39:14.377Z,0.90
2023-05-19T06:41:41.886Z,1.20
2023-05-19T06:44:09.484Z,1.00
2023-05-19T06:46:36.940Z,1.10
2023-05-19T06:49:04.363Z,2.10
2023-05-19T06:51:31.889Z,1.50
2023-05-19T06:53:59.330Z,1.83
2023-05-19T06:56:26.892Z,1.70
2023-05-19T06:58:54.334Z,2.27
2023-05-19T07:01:21.954Z,1.90
2023-05-19T07:03:49.562Z,1.43
2023-05-19T07:06:17.065Z,1.60
2023-05-19T07:08:44.639Z,1.07
2023-05-19T07:11:12.662Z,1.10
2023-05-19T07:13:40.143Z,1.30
2023-05-19T07:16:07.857Z,1.10
2023-05-19T07:18:35.592Z,1.23
2023-05-19T07:21:03.036Z,1.10
2023-05-19T07:23:30.478Z,1.00
2023-05-19T07:25:57.915Z,0.70
2023-05-19T07:28:25.536Z,0.73
2023-05-19T07:30:53.257Z,0.60
2023-05-19T07:33:20.698Z,0.90
2023-05-19T07:35:48.272Z,0.60
2023-05-19T07:38:16.160Z,0.77
2023-05-19T07:40:43.609Z,0.70
2023-05-19T07:43:11.903Z,0.80
2023-05-19T07:45:39.775Z,0.57
2023-05-19T07:48:10.583Z,0.60
2023-05-19T07:50:38.165Z,0.70
2023-05-19T07:53:06.080Z,0.53
2023-05-19T07:55:33.573Z,0.70
2023-05-19T07:58:01.094Z,0.57
2023-05-19T08:00:28.650Z,0.40
2023-05-19T08:02:57.486Z,0.50
2023-05-19T08:05:26.332Z,0.50
2023-05-19T08:07:54.020Z,0.40
2023-05-19T08:10:21.512Z,0.30
2023-05-19T08:12:49.050Z,0.40
2023-05-19T08:15:16.852Z,0.30
2023-05-19T08:17:44.190Z,0.30
2023-05-19T08:20:14.853Z,0.50
2023-05-19T08:22:42.234Z,0.40
2023-05-19T08:25:10.494Z,0.25
2023-05-19T08:27:37.931Z,0.30
2023-05-19T08:30:05.641Z,0.30
2023-05-19T08:32:33.210Z,0.30
2023-05-19T08:35:00.806Z,0.30
2023-05-19T08:37:28.280Z,0.20
2023-05-19T08:39:55.720Z,0.13
2023-05-19T08:42:23.187Z,0.23
2023-05-19T08:44:50.583Z,0.17
2023-05-19T08:47:18.983Z,0.10
2023-05-19T08:49:47.500Z,0.20
2023-05-19T08:52:52.464Z,0.10
2023-05-19T08:55:27.732Z,0.70
2023-05-19T08:57:55.523Z,0.98
2023-05-19T09:00:23.644Z,0.90
2023-05-19T09:03:00.240Z,0.70
2023-05-19T09:05:34.125Z,1.20
2023-05-19T09:08:02.992Z,1.27
2023-05-19T09:10:30.360Z,1.13
2023-05-19T09:12:57.853Z,1.20
2023-05-19T09:15:27.978Z,0.97
2023-05-19T09:18:09.094Z,0.80
2023-05-19T09:20:46.543Z,0.60
2023-05-19T09:23:15.212Z,0.83
2023-05-19T09:25:52.889Z,0.70
2023-05-19T09:28:28.070Z,0.60
2023-05-19T09:31:06.256Z,0.50
2023-05-19T09:33:34.295Z,0.40
2023-05-19T09:36:01.979Z,0.50
2023-05-19T09:38:29.661Z,0.50
2023-05-19T09:40:58.479Z,0.30
2023-05-19T09:43:29.267Z,0.40
2023-05-19T09:46:06.929Z,0.50
2023-05-19T09:48:35.673Z,0.30
2023-05-19T09:51:03.745Z,0.30
2023-05-19T09:53:32.644Z,0.30
2023-05-19T09:56:02.132Z,0.33
2023-05-19T09:58:35.451Z,0.30
2023-05-19T10:01:04.050Z,0.30
2023-05-19T10:03:35.375Z,0.20
2023-05-19T10:06:05.197Z,0.30
2023-05-19T10:08:34.521Z,0.20
2023-05-19T10:11:02.374Z,0.20
2023-05-19T10:13:30.914Z,0.38
2023-05-19T10:15:59.973Z,0.30
2023-05-19T10:18:29.952Z,0.15
2023-05-19T10:20:58.587Z,0.10
2023-05-19T10:23:26.425Z,0.40
2023-05-19T10:25:56.164Z,0.30
2023-05-19T10:28:26.772Z,0.30
2023-05-19T10:30:55.763Z,0.30
2023-05-19T10:33:29.166Z,0.20
2023-05-19T10:36:11.302Z,0.20
2023-05-19T10:39:01.884Z,0.20
2023-05-19T10:41:35.327Z,0.10
2023-05-19T10:44:32.944Z,0.30
2023-05-19T10:47:00.661Z,0.20
2023-05-19T10:49:28.333Z,0.25
2023-05-19T10:51:58.585Z,0.30
2023-05-19T10:54:40.881Z,0.38
2023-05-19T10:57:10.059Z,0.30
2023-05-19T10:59:39.373Z,0.15
2023-05-19T11:02:08.010Z,0.40
2023-05-19T11:04:51.172Z,0.40
2023-05-19T11:07:22.647Z,0.47
2023-05-19T11:09:51.766Z,0.20
2023-05-19T11:12:25.662Z,0.30
2023-05-19T11:14:54.303Z,0.40
2023-05-19T11:17:23.822Z,0.60
2023-05-19T11:19:59.449Z,0.40
2023-05-19T11:22:27.813Z,0.50
2023-05-19T11:24:59.306Z,0.90
2023-05-19T11:27:33.990Z,0.68
2023-05-19T11:30:02.277Z,0.70
2023-05-19T11:32:31.076Z,0.68
2023-05-19T11:34:58.960Z,0.60
2023-05-19T11:37:26.918Z,0.70
2023-05-19T11:39:54.328Z,0.65
2023-05-19T11:42:21.841Z,0.80
2023-05-19T11:44:49.819Z,0.63
2023-05-19T11:47:17.823Z,0.80
2023-05-19T11:49:46.144Z,0.75
2023-05-19T11:52:16.836Z,0.60
2023-05-19T11:54:44.375Z,0.80
2023-05-19T11:57:11.937Z,0.63
2023-05-19T11:59:43.872Z,0.80
2023-05-19T12:02:14.474Z,0.60
2023-05-19T12:04:42.002Z,0.70
2023-05-19T12:07:09.442Z,0.60
2023-05-19T12:09:38.045Z,0.70
2023-05-19T12:12:05.624Z,0.50
2023-05-19T12:14:33.088Z,0.68
2023-05-19T12:17:00.830Z,0.60
2023-05-19T12:19:28.418Z,1.17
2023-05-19T12:21:56.122Z,0.50
2023-05-19T12:24:23.717Z,0.40
2023-05-19T12:26:51.244Z,0.30
2023-05-19T12:29:18.724Z,0.40
2023-05-19T12:31:48.050Z,0.35
2023-05-19T12:34:15.567Z,0.47
2023-05-19T12:36:43.157Z,0.35
2023-05-19T12:39:13.003Z,0.40
2023-05-19T12:41:40.523Z,0.20
2023-05-19T12:44:15.329Z,0.47
2023-05-19T12:46:42.686Z,0.30
2023-05-19T12:49:11.089Z,0.35
2023-05-19T12:51:38.606Z,0.30
2023-05-19T12:54:06.080Z,0.40
2023-05-19T12:56:33.643Z,0.38
2023-05-19T12:59:02.201Z,0.40
2023-05-19T13:01:31.019Z,0.52
2023-05-19T13:03:58.834Z,0.40
2023-05-19T13:06:26.622Z,0.40
2023-05-19T13:08:54.055Z,0.50
2023-05-19T13:11:21.414Z,0.50
2023-05-19T13:13:48.871Z,0.40
2023-05-19T13:16:16.884Z,0.47
2023-05-19T13:18:44.566Z,0.20
2023-05-19T13:21:12.097Z,0.40
2023-05-19T13:23:39.846Z,0.30
2023-05-19T13:26:07.964Z,0.50
2023-05-19T13:28:35.811Z,0.30
2023-05-19T13:31:03.201Z,0.40
2023-05-19T13:33:30.603Z,0.50
2023-05-19T13:35:58.053Z,0.47
2023-05-19T13:38:25.528Z,0.50
2023-05-19T13:40:53.008Z,0.47
2023-05-19T13:43:20.567Z,0.40
2023-05-19T13:45:48.210Z,0.50
2023-05-19T13:48:18.749Z,0.57
2023-05-19T13:50:46.213Z,0.32
2023-05-19T13:53:13.618Z,0.30
2023-05-19T13:55:41.287Z,0.55
2023-05-19T13:58:11.227Z,0.32
2023-05-19T14:00:38.767Z,0.30
2023-05-19T14:03:06.229Z,0.50
2023-05-19T14:05:33.895Z,0.47
2023-05-19T14:08:01.445Z,0.45
2023-05-19T14:10:28.887Z,0.30
2023-05-19T14:13:25.960Z,0.60
2023-05-19T14:15:47.300Z,0.50
2023-05-19T14:18:14.810Z,0.40
2023-05-19T14:20:42.289Z,0.30
2023-05-19T14:23:09.735Z,0.40
2023-05-19T14:25:37.176Z,0.30
2023-05-19T14:28:04.659Z,0.40
2023-05-19T14:30:32.472Z,0.50
2023-05-19T14:33:00.266Z,0.35
2023-05-19T14:35:27.902Z,0.43
2023-05-19T14:37:55.366Z,0.50
2023-05-19T14:40:22.806Z,0.40
2023-05-19T14:42:50.228Z,0.77
2023-05-19T14:45:17.789Z,0.50
2023-05-19T14:47:46.174Z,0.40
2023-05-19T14:50:14.484Z,0.40
2023-05-19T14:52:41.966Z,0.45
2023-05-19T14:55:11.913Z,0.57
2023-05-19T14:57:39.447Z,0.40
2023-05-19T15:00:09.361Z,0.40
2023-05-19T15:02:37.203Z,0.30
2023-05-19T15:05:04.802Z,0.30
2023-05-19T15:07:32.320Z,0.25
2023-05-19T15:09:59.929Z,0.40
2023-05-19T15:12:27.362Z,0.30
2023-05-19T15:14:54.843Z,0.20
2023-05-19T15:17:22.339Z,0.30
2023-05-19T15:19:49.848Z,0.30
2023-05-19T15:22:17.380Z,0.28
2023-05-19T15:24:44.921Z,0.20
2023-05-19T15:27:12.449Z,0.30
2023-05-19T15:29:39.885Z,0.35
2023-05-19T15:32:07.690Z,0.20
2023-05-19T15:34:35.124Z,0.20
2023-05-19T15:37:02.566Z,0.30
2023-05-19T15:39:31.578Z,0.15
2023-05-19T15:41:58.968Z,0.22
2023-05-19T15:44:28.841Z,0.13
2023-05-19T15:46:56.534Z,0.10
2023-05-19T15:49:25.295Z,0.25
2023-05-19T15:51:52.649Z,0.10
2023-05-19T15:54:20.049Z,0.13
2023-05-19T15:56:47.448Z,0.10
2023-05-19T15:59:14.937Z,0.10
2023-05-19T16:01:42.522Z,0.10
2023-05-19T16:04:10.257Z,0.10
2023-05-19T16:06:38.004Z,0.13
2023-05-19T16:09:05.332Z,0.20
2023-05-19T16:11:32.781Z,0.20
2023-05-19T16:14:00.295Z,0.20
2023-05-19T16:16:27.821Z,0.10
2023-05-19T16:18:55.608Z,0.20
2023-05-19T16:21:23.166Z,0.10
2023-05-19T16:23:50.767Z,0.20
2023-05-19T16:26:18.183Z,0.57
2023-05-19T16:28:45.650Z,0.17
2023-05-19T16:31:13.087Z,0.60
2023-05-19T16:33:41.370Z,0.47
2023-05-19T16:36:08.938Z,0.10
2023-05-19T16:38:36.370Z,0.10
2023-05-19T16:41:05.374Z,0.13
2023-05-19T16:43:34.058Z,0.30
2023-05-19T16:46:03.633Z,0.40
2023-05-19T16:48:31.198Z,2.73
2023-05-19T16:50:59.498Z,0.30
2023-05-19T16:53:27.034Z,0.50
2023-05-19T16:55:54.532Z,0.27
2023-05-19T16:58:22.069Z,2.27
2023-05-19T17:00:52.115Z,271.97
2023-05-19T17:03:20.355Z,405.50
2023-05-19T17:05:48.042Z,109.23
2023-05-19T17:08:15.807Z,10.27
2023-05-19T17:10:44.920Z,48.72
2023-05-19T17:13:12.563Z,7.50
2023-05-19T17:15:42.320Z,30.00
2023-05-19T17:18:12.695Z,50.22
2023-05-19T17:20:40.095Z,38.73
2023-05-19T17:23:07.618Z,32.08
2023-05-19T17:25:35.006Z,1.92
2023-05-19T17:28:02.405Z,0.60
2023-05-19T17:30:29.869Z,1.00
2023-05-19T17:32:59.171Z,0.43
2023-05-19T17:35:28.413Z,0.60
2023-05-19T17:37:56.167Z,1.40
2023-05-19T17:40:23.565Z,1.02
2023-05-19T17:42:51.165Z,1.55
2023-05-19T17:45:18.822Z,0.68
2023-05-19T17:47:46.332Z,0.60
2023-05-19T17:50:13.799Z,1.43
2023-05-19T17:52:41.590Z,11.73
2023-05-19T17:55:09.371Z,1.40
2023-05-19T17:57:37.335Z,0.50
2023-05-19T18:00:05.750Z,0.30
2023-05-19T18:02:33.418Z,0.40
2023-05-19T18:05:01.206Z,0.10
2023-05-19T18:07:29.024Z,0.40
2023-05-19T18:09:57.279Z,0.10
2023-05-19T18:12:24.844Z,0.10
2023-05-19T18:14:52.325Z,0.20
2023-05-19T18:17:19.689Z,0.40
2023-05-19T18:19:47.280Z,0.80
2023-05-19T18:22:15.029Z,1.27
2023-05-19T18:24:42.486Z,0.90
2023-05-19T18:27:09.911Z,0.77
2023-05-19T18:29:37.419Z,0.80
2023-05-19T18:32:05.047Z,11.80
2023-05-19T18:34:32.568Z,8.90
2023-05-19T18:36:59.931Z,10.73
2023-05-19T18:39:29.236Z,8.43
2023-05-19T18:41:57.162Z,9.30
2023-05-19T18:44:24.630Z,6.28
2023-05-19T18:46:52.016Z,1.20
2023-05-19T18:49:20.046Z,1.33
2023-05-19T18:51:48.632Z,0.80
2023-05-19T18:54:16.251Z,0.90
2023-05-19T18:56:43.702Z,0.57
2023-05-19T18:59:11.486Z,0.40
2023-05-19T19:01:39.033Z,0.70
2023-05-19T19:04:06.787Z,0.43
2023-05-19T19:06:34.248Z,0.60
2023-05-19T19:09:01.746Z,0.40
2023-05-19T19:11:29.425Z,0.40
2023-05-19T19:13:56.968Z,0.40
2023-05-19T19:16:25.792Z,0.20
2023-05-19T19:18:53.402Z,0.20
2023-05-19T19:21:24.117Z,0.73
2023-05-19T19:23:52.899Z,0.70
2023-05-19T19:26:21.015Z,0.50
2023-05-19T19:28:48.535Z,0.60
2023-05-19T19:31:16.048Z,0.60
2023-05-19T19:33:43.658Z,0.50
2023-05-19T19:36:11.845Z,0.60
2023-05-19T19:38:39.292Z,0.60
2023-05-19T19:41:06.778Z,0.57
2023-05-19T19:43:34.292Z,0.57
2023-05-19T19:46:01.846Z,0.53
2023-05-19T19:48:29.861Z,0.73
2023-05-19T19:51:00.532Z,0.53
2023-05-19T19:53:27.992Z,0.60
2023-05-19T19:56:02.024Z,0.23
2023-05-19T19:58:29.916Z,0.20
2023-05-19T20:00:58.328Z,0.30
2023-05-19T20:03:25.957Z,0.30
2023-05-19T20:05:54.692Z,1.30
2023-05-19T20:08:22.264Z,0.60
2023-05-19T20:10:49.689Z,0.40
2023-05-19T20:13:17.888Z,0.33
2023-05-19T20:15:46.648Z,0.30
2023-05-19T20:18:14.215Z,0.20
2023-05-19T20:20:41.846Z,0.20
2023-05-19T20:23:09.888Z,0.20
2023-05-19T20:25:53.700Z,0.60
2023-05-19T20:28:29.585Z,0.60
2023-05-19T20:30:57.013Z,0.40
2023-05-19T20:33:24.520Z,0.50
2023-05-19T20:35:51.926Z,0.20
2023-05-19T20:38:19.304Z,0.20
2023-05-19T20:40:46.728Z,0.20
2023-05-19T20:43:14.216Z,0.20
2023-05-19T20:45:44.171Z,0.20
2023-05-19T20:48:11.834Z,0.10
2023-05-19T20:50:40.093Z,0.10
2023-05-19T20:53:07.642Z,0.40
2023-05-19T20:55:38.398Z,0.10
2023-05-19T20:58:06.218Z,0.30
2023-05-19T21:00:33.971Z,0.20
2023-05-19T21:03:01.941Z,0.20
2023-05-19T21:05:29.660Z,0.00
2023-05-19T21:07:57.251Z,0.20
2023-05-19T21:10:24.783Z,0.10
2023-05-19T21:12:52.287Z,0.20
2023-05-19T21:15:19.849Z,0.10
2023-05-19T21:17:47.397Z,0.10
2023-05-19T21:20:14.909Z,0.30
2023-05-19T21:22:42.332Z,0.20
2023-05-19T21:25:09.852Z,0.10
2023-05-19T21:27:37.408Z,0.20
2023-05-19T21:30:04.925Z,0.20
2023-05-19T21:32:32.384Z,0.10
2023-05-19T21:35:00.380Z,0.27
2023-05-19T21:37:27.926Z,0.10
2023-05-19T21:39:55.344Z,0.13
2023-05-19T21:42:22.733Z,0.50
2023-05-19T21:44:50.190Z,0.43
2023-05-19T21:47:17.738Z,0.30
2023-05-19T21:49:45.290Z,0.20
2023-05-19T21:52:12.787Z,0.30
2023-05-19T21:54:40.213Z,0.53
2023-05-19T21:57:07.706Z,0.60
2023-05-19T21:59:35.259Z,0.47
2023-05-19T22:02:02.822Z,0.20
2023-05-19T22:04:33.816Z,0.40
2023-05-19T22:07:01.217Z,0.40
2023-05-19T22:09:29.340Z,0.40
2023-05-19T22:11:56.714Z,0.80
2023-05-19T22:14:24.173Z,0.73
2023-05-19T22:16:52.020Z,0.50
2023-05-19T22:19:20.080Z,0.70
2023-05-19T22:21:48.270Z,0.50
2023-05-19T22:24:18.702Z,0.80
2023-05-19T22:26:47.136Z,0.47
2023-05-19T22:29:18.573Z,0.80
2023-05-19T22:31:46.017Z,0.30
2023-05-19T22:34:15.194Z,0.40
2023-05-19T22:36:44.344Z,0.53
2023-05-19T22:39:12.670Z,0.50
2023-05-19T22:41:40.375Z,0.40
2023-05-19T22:44:09.253Z,0.20
2023-05-19T22:46:36.853Z,0.30
2023-05-19T22:49:04.614Z,0.37
2023-05-19T22:51:32.285Z,0.30
2023-05-19T22:53:59.725Z,0.30
2023-05-19T22:56:29.658Z,0.40
2023-05-19T22:58:57.113Z,0.20
2023-05-19T23:01:24.738Z,0.30
2023-05-19T23:03:52.404Z,0.40
2023-05-19T23:06:19.828Z,0.20
2023-05-19T23:08:47.673Z,0.20
2023-05-19T23:11:15.180Z,0.20
2023-05-19T23:13:42.597Z,0.30
2023-05-19T23:16:09.985Z,0.20
2023-05-19T23:18:37.378Z,0.40
2023-05-19T23:21:04.763Z,0.27
2023-05-19T23:23:32.156Z,0.40
2023-05-19T23:25:59.517Z,0.20
2023-05-19T23:28:26.927Z,0.20
2023-05-19T23:30:54.774Z,0.30
2023-05-19T23:33:22.498Z,0.33
2023-05-19T23:35:50.179Z,0.33
2023-05-19T23:38:17.580Z,0.30
2023-05-19T23:40:44.991Z,0.30
2023-05-19T23:43:12.342Z,0.23
2023-05-19T23:45:39.778Z,0.20
2023-05-19T23:48:07.332Z,0.40
2023-05-19T23:50:34.956Z,0.40
2023-05-19T23:53:02.467Z,0.40
2023-05-19T23:55:29.985Z,0.60
2023-05-19T23:57:57.391Z,0.50
